Ana Sayfa
METAR-TAF:

METAR-TAF

Havaalanları :

Coober Pedy, Avustralya

Enlem: 29-02-24S, Boylam: 134-43-18E, yükseklik: 226 m

Güncel hava durumu gözlemi

Rapor saat 05:00 UTC de 10 dakika önce yapıldı.
Rüzgar batı/güneybatıdan 12 kt
Sıcaklık 18°C
Nem 42%
Basınç 1022 hPa
Görüş mesafesi 10 km veya daha fazla
4800 ft yükseklikte parçalı bulutlu

METAR: YCBP 160500Z AUTO 24012KT 9999 // SCT048 18/05 Q1022

Saat: 14:40 (05:10 UTC)


TAF: eksik

4.000'den fazla havaalanı için hava durumu gözlemleri ve tahminleri (METAR ve TAF raporları).

Kullanılabilir istasyonlar harita üzerinde sarı ve kırmızı noktalarla gösterilir.

İstasyonun adını görmek için fareyi noktanın üzerinde gezdirin.

Sonrasında hava gözlem ve tahminlerini görmek için tıklayın.

Haritayı değiştirmek için: yaklaştırmak için siyah artı işaretli yeşil düğmeye ve uzaklaştırmak için de eksi işaretli düğmeye hızla tıklayın; bitişik haritalar için yeşil okları kullanın.


METAR-TAF: